Time;durP1;ratioP1;P1;durP2;ratioP2;P2;SDS_P1;SDS_P2;PMS_P1;PMS_P2;Temp;Humidity;BMP_temperature;BMP_pressure;BME280_temperature;BME280_humidity;BME280_pressure;Samples;Min_cycle;Max_cycle;Signal;HPM_P1;HPM_P2
2022/07/11 00:02:25;;;;;;;;;;;;;;;-144.99;91.63;52313.56;5056366;28;20039;-73
2022/07/11 00:04:52;;;;;;;;;;;;;;;-144.99;91.60;52321.72;5055361;28;20307;-73
2022/07/11 00:07:18;;;;;;;;;;;;;;;-144.99;91.22;52309.50;5052712;28;19925;-73
2022/07/11 00:09:45;;;;;;;;;;;;;;;-144.99;90.57;52313.56;5053794;28;19928;-71
2022/07/11 00:12:13;;;;;;;;;;;;;;;-144.99;90.35;52305.41;5049171;28;19928;-73
2022/07/11 00:14:40;;;;;;;;;;;;;;;-144.99;90.54;52297.25;5059154;28;20422;-71
2022/07/11 00:17:07;;;;;;;;;;;;;;;-144.99;90.67;52329.88;5058578;28;19928;-71
2022/07/11 00:19:34;;;;;;;;;;;;;;;-144.99;91.27;52313.56;5061466;28;19931;-73
2022/07/11 00:22:00;;;;;;;;;;;;;;;-144.99;92.04;52325.81;5050521;28;20526;-73
2022/07/11 00:24:27;;;;;;;;;;;;;;;-144.99;92.86;52309.50;5042267;28;19928;-73
2022/07/11 00:26:53;;;;;;;;;;;;;;;-144.99;93.40;52285.03;5050226;28;20035;-74
2022/07/11 00:29:21;;;;;;;;;;;;;;;-144.99;93.35;52305.41;5055227;28;20015;-74
2022/07/11 00:31:47;;;;;;;;;;;;;;;-144.99;93.94;52331.91;4701496;28;10000068;-74
2022/07/11 00:34:14;;;;;;;;;;;;;;;-144.99;94.55;52301.34;5048972;28;20037;-74
2022/07/11 00:36:41;;;;;;;;;;;;;;;-144.99;94.75;52303.38;5056563;28;19928;-74
2022/07/11 00:39:07;;;;;;;;;;;;;;;-144.99;95.17;52307.47;5053396;28;20459;-72
2022/07/11 00:41:33;;;;;;;;;;;;;;;-144.99;94.83;52280.97;5054452;28;19925;-74
2022/07/11 00:44:01;;;;;;;;;;;;;;;-144.99;94.50;52301.34;5050443;28;20032;-72
2022/07/11 00:46:29;;;;;;;;;;;;;;;-144.99;94.48;52333.94;5055990;28;19979;-73
2022/07/11 00:48:56;;;;;;;;;;;;;;;-144.99;94.62;52283.00;5048481;28;20395;-73
2022/07/11 00:51:23;;;;;;;;;;;;;;;-144.99;94.70;52293.19;5051227;28;20019;-73
2022/07/11 00:53:51;;;;;;;;;;;;;;;-144.99;94.85;52321.72;5063975;28;19925;-74
2022/07/11 00:56:18;;;;;;;;;;;;;;;-144.99;95.06;52313.56;5062605;28;19936;-74
2022/07/11 00:58:44;;;;;;;;;;;;;;;-144.99;95.39;52309.50;5067620;28;19979;-73
2022/07/11 01:01:11;;;;;;;;;;;;;;;-144.99;95.78;52285.03;5059326;28;19992;-74
2022/07/11 01:03:40;;;;;;;;;;;;;;;-144.99;96.68;52333.94;5055771;28;20011;-73
2022/07/11 01:06:06;;;;;;;;;;;;;;;-144.99;96.91;52333.94;5045882;22;20424;-72
2022/07/11 01:08:35;;;;;;;;;;;;;;;-144.99;97.44;52285.03;4965995;28;20040;-73
2022/07/11 01:11:02;;;;;;;;;;;;;;;-144.99;98.45;52336.00;4969970;28;19934;-73
2022/07/11 01:13:28;;;;;;;;;;;;;;;-144.99;99.33;52283.00;4970323;28;19941;-72
2022/07/11 01:16:07;;;;;;;;;;;;;;;-144.99;99.27;52291.16;4989174;28;20015;-74
2022/07/11 01:18:33;;;;;;;;;;;;;;;-144.99;99.87;52313.56;4967848;28;19992;-73
2022/07/11 01:21:01;;;;;;;;;;;;;;;-144.99;100.00;52297.25;4972146;28;19972;-74
2022/07/11 01:23:29;;;;;;;;;;;;;;;-144.99;99.98;52280.97;4969137;28;20457;-73
2022/07/11 01:25:56;;;;;;;;;;;;;;;-144.99;100.00;52301.34;4969471;28;20012;-72
2022/07/11 01:28:22;;;;;;;;;;;;;;;-144.99;100.00;52309.50;4970053;28;19926;-72
2022/07/11 01:30:49;;;;;;;;;;;;;;;-144.99;100.00;52289.13;4984439;28;19972;-74
2022/07/11 01:33:15;;;;;;;;;;;;;;;-144.99;100.00;52315.59;4977987;28;20389;-72
2022/07/11 01:35:41;;;;;;;;;;;;;;;-144.99;99.98;52317.66;4969201;28;20032;-72
2022/07/11 01:38:08;;;;;;;;;;;;;;;-144.99;99.86;52285.03;4969224;28;19936;-73
2022/07/11 01:40:36;;;;;;;;;;;;;;;-144.99;99.88;52329.88;4968843;28;19961;-71
2022/07/11 01:43:02;;;;;;;;;;;;;;;-144.99;100.00;52338.03;4969844;28;19926;-74
2022/07/11 01:45:28;;;;;;;;;;;;;;;-144.99;100.00;52297.25;4969143;28;19956;-72
2022/07/11 01:47:55;;;;;;;;;;;;;;;-144.99;100.00;52297.25;4969662;28;20017;-72
2022/07/11 01:50:21;;;;;;;;;;;;;;;-144.99;100.00;52329.88;4970730;28;19934;-72
2022/07/11 01:52:48;;;;;;;;;;;;;;;-144.99;100.00;52313.56;4969018;28;19975;-69
2022/07/11 01:55:14;;;;;;;;;;;;;;;-144.99;100.00;52305.41;4968844;28;20345;-72
2022/07/11 01:57:42;;;;;;;;;;;;;;;-144.99;100.00;52317.66;4965048;28;20025;-73
2022/07/11 02:00:11;;;;;;;;;;;;;;;-144.99;100.00;52299.31;4969684;28;19982;-72
2022/07/11 02:02:37;;;;;;;;;;;;;;;-144.99;100.00;52276.88;4962909;28;20025;-72
2022/07/11 02:05:04;;;;;;;;;;;;;;;-144.99;100.00;52309.50;4968914;28;19948;-71
2022/07/11 02:10:14;;;;;;;;;;;;;;;-144.99;100.00;52329.88;4967085;28;19991;-73
2022/07/11 02:12:42;;;;;;;;;;;;;;;-144.99;100.00;52297.25;4968436;28;20431;-72
2022/07/11 02:15:09;;;;;;;;;;;;;;;-144.99;100.00;52270.78;4970614;28;19948;-73
2022/07/11 02:17:35;;;;;;;;;;;;;;;-144.99;100.00;52272.81;4971614;28;20407;-74
2022/07/11 02:20:01;;;;;;;;;;;;;;;-144.99;100.00;52338.03;4968844;28;19932;-73
2022/07/11 02:22:29;;;;;;;;;;;;;;;-144.99;100.00;52329.88;4968837;28;19927;-71
2022/07/11 02:24:56;;;;;;;;;;;;;;;-144.99;100.00;52283.00;4968112;28;20021;-73
2022/07/11 02:27:22;;;;;;;;;;;;;;;-144.99;100.00;52346.19;4973260;28;19926;-74
2022/07/11 02:29:50;;;;;;;;;;;;;;;-144.99;100.00;52305.41;4968540;28;20009;-73
2022/07/11 02:32:16;;;;;;;;;;;;;;;-144.99;100.00;52315.59;4970806;28;19926;-73
2022/07/11 02:34:43;;;;;;;;;;;;;;;-144.99;100.00;52293.19;4968885;28;19926;-71
2022/07/11 02:37:09;;;;;;;;;;;;;;;-144.99;100.00;52313.56;4967910;28;19965;-71
2022/07/11 02:39:36;;;;;;;;;;;;;;;-144.99;100.00;52264.66;4968739;28;19932;-73
2022/07/11 02:42:02;;;;;;;;;;;;;;;-144.99;100.00;52348.22;4968691;28;20016;-73
2022/07/11 02:44:28;;;;;;;;;;;;;;;-144.99;100.00;52327.84;4968758;28;19926;-72
2022/07/11 02:46:56;;;;;;;;;;;;;;;-144.99;99.40;52295.22;4968509;28;20468;-72
2022/07/11 02:49:23;;;;;;;;;;;;;;;-144.99;98.79;52344.16;4968395;28;20024;-73
2022/07/11 02:51:49;;;;;;;;;;;;;;;-144.99;98.38;52297.25;4968101;28;19930;-72
2022/07/11 02:54:16;;;;;;;;;;;;;;;-144.99;98.20;52285.03;4970402;28;19969;-71
2022/07/11 02:56:43;;;;;;;;;;;;;;;-144.99;97.91;52356.38;4970349;28;19926;-72
2022/07/11 02:59:09;;;;;;;;;;;;;;;-144.99;97.48;52333.94;4969813;28;20016;-72
2022/07/11 03:01:35;;;;;;;;;;;;;;;-144.99;97.14;52336.00;4968922;28;19926;-71
2022/07/11 03:04:03;;;;;;;;;;;;;;;-144.99;96.98;52325.81;4969225;28;19962;-72
2022/07/11 03:06:30;;;;;;;;;;;;;;;-144.99;97.01;52338.03;4968418;28;20044;-71
2022/07/11 03:08:56;;;;;;;;;;;;;;;-144.99;97.06;52346.19;4967481;28;19926;-70
2022/07/11 03:11:22;;;;;;;;;;;;;;;-144.99;96.85;52309.50;4973666;28;19934;-71
2022/07/11 03:13:49;;;;;;;;;;;;;;;-144.99;96.54;52276.88;4968882;28;20025;-72
2022/07/11 03:16:15;;;;;;;;;;;;;;;-144.99;96.90;52342.09;4970329;28;19926;-72
2022/07/11 03:18:42;;;;;;;;;;;;;;;-144.99;98.14;52289.13;4971359;28;20409;-73
2022/07/11 03:21:09;;;;;;;;;;;;;;;-144.99;98.35;52309.50;4974763;28;19952;-71
2022/07/11 03:23:36;;;;;;;;;;;;;;;-144.99;98.67;52333.94;4964348;28;20364;-71
2022/07/11 03:26:02;;;;;;;;;;;;;;;-144.99;98.69;52362.50;4970892;28;19933;-72
2022/07/11 03:28:29;;;;;;;;;;;;;;;-144.99;98.52;52360.44;4968451;28;19996;-72
2022/07/11 03:30:56;;;;;;;;;;;;;;;-144.99;98.65;52321.72;4969279;28;20042;-72
2022/07/11 03:33:22;;;;;;;;;;;;;;;-144.99;98.13;52315.59;4967163;28;20025;-72
2022/07/11 03:35:49;;;;;;;;;;;;;;;-144.99;97.83;52293.19;4968466;28;19968;-72
2022/07/11 03:38:18;;;;;;;;;;;;;;;-144.99;97.41;52323.75;4971269;28;19926;-73
2022/07/11 03:40:45;;;;;;;;;;;;;;;-144.99;97.47;52313.56;4973990;28;20304;-72
2022/07/11 03:43:12;;;;;;;;;;;;;;;-144.99;97.69;52338.03;4970392;28;19950;-71
2022/07/11 03:45:38;;;;;;;;;;;;;;;-144.99;97.52;52342.09;4971078;28;19926;-72
2022/07/11 03:48:05;;;;;;;;;;;;;;;-144.99;97.32;52336.00;4972118;28;20020;-72
2022/07/11 03:50:31;;;;;;;;;;;;;;;-144.99;96.85;52291.16;4973841;28;19936;-72
2022/07/11 03:52:58;;;;;;;;;;;;;;;-144.99;96.71;52301.34;4970996;28;20360;-73
2022/07/11 03:55:26;;;;;;;;;;;;;;;-144.99;96.41;52297.25;4971854;28;19984;-71
2022/07/11 03:57:52;;;;;;;;;;;;;;;-144.99;96.64;52309.50;4970224;28;20037;-71
2022/07/11 04:00:19;;;;;;;;;;;;;;;-144.99;96.83;52325.81;4973292;28;19937;-72
2022/07/11 04:02:46;;;;;;;;;;;;;;;-144.99;96.65;52317.66;4970360;28;19931;-71
2022/07/11 04:05:13;;;;;;;;;;;;;;;-144.99;96.50;52354.34;4970343;28;19937;-70
2022/07/11 04:07:39;;;;;;;;;;;;;;;-144.99;95.98;52346.19;4970422;28;19927;-72
2022/07/11 04:10:06;;;;;;;;;;;;;;;-144.99;95.77;52325.81;4970841;28;20593;-70
2022/07/11 04:12:34;;;;;;;;;;;;;;;-144.99;95.89;52285.03;4986680;28;19926;-69
2022/07/11 04:15:00;;;;;;;;;;;;;;;-144.99;95.94;52317.66;4972170;28;19926;-72
2022/07/11 04:17:28;;;;;;;;;;;;;;;-144.99;95.83;52297.25;4968017;28;20013;-72
2022/07/11 04:19:54;;;;;;;;;;;;;;;-144.99;96.41;52307.47;4973832;28;19927;-72
2022/07/11 04:22:21;;;;;;;;;;;;;;;-144.99;96.55;52346.19;4970699;28;19952;-73
2022/07/11 04:24:47;;;;;;;;;;;;;;;-144.99;96.22;52342.09;4971658;28;19958;-74
2022/07/11 04:27:13;;;;;;;;;;;;;;;-144.99;96.07;52309.50;4970439;28;19948;-73
2022/07/11 04:29:41;;;;;;;;;;;;;;;-144.99;96.06;52342.09;4973188;28;20015;-73
2022/07/11 04:32:08;;;;;;;;;;;;;;;-144.99;95.84;52280.97;4969996;28;19926;-73
2022/07/11 04:34:34;;;;;;;;;;;;;;;-144.99;95.59;52301.34;4972778;28;20036;-74
2022/07/11 04:37:01;;;;;;;;;;;;;;;-144.99;95.41;52276.88;4976625;28;19930;-74
2022/07/11 04:39:27;;;;;;;;;;;;;;;-144.99;94.96;52301.34;4970892;28;20009;-74
2022/07/11 04:41:54;;;;;;;;;;;;;;;-144.99;94.88;52256.50;4970579;28;19926;-74
2022/07/11 04:44:20;;;;;;;;;;;;;;;-144.99;94.73;52250.38;4970513;28;19930;-73
2022/07/11 04:46:48;;;;;;;;;;;;;;;-144.99;94.60;52268.72;4970851;28;20016;-73
2022/07/11 04:49:15;;;;;;;;;;;;;;;-144.99;94.58;52244.28;4969796;28;19933;-72
2022/07/11 04:51:42;;;;;;;;;;;;;;;-144.99;94.87;52285.03;4971115;28;20015;-74
2022/07/11 04:54:08;;;;;;;;;;;;;;;-144.99;94.92;52258.53;4970539;28;19949;-74
2022/07/11 04:56:35;;;;;;;;;;;;;;;-144.99;95.03;52236.13;4970092;28;19937;-74
2022/07/11 04:59:01;;;;;;;;;;;;;;;-144.99;94.64;52240.19;4972118;28;20453;-74
2022/07/11 05:01:28;;;;;;;;;;;;;;;-144.99;93.88;52272.81;4970691;28;19965;-72
2022/07/11 05:03:56;;;;;;;;;;;;;;;-144.99;93.19;52242.22;4970859;28;19930;-74
2022/07/11 05:06:23;;;;;;;;;;;;;;;-144.99;92.56;52252.44;4282865;28;10000732;-73
2022/07/11 05:08:49;;;;;;;;;;;;;;;-144.99;91.72;52268.72;4967674;28;20217;-72
2022/07/11 05:11:15;;;;;;;;;;;;;;;-144.99;91.16;52268.72;4965169;28;20108;-73
2022/07/11 05:13:42;;;;;;;;;;;;;;;-144.99;90.55;52266.69;4972196;28;19930;-73
2022/07/11 05:16:08;;;;;;;;;;;;;;;-144.99;90.10;52272.81;4967764;28;19926;-73
2022/07/11 05:18:35;;;;;;;;;;;;;;;-144.99;89.64;52236.13;4970461;28;19926;-72
2022/07/11 05:21:02;;;;;;;;;;;;;;;-144.99;89.27;52211.66;4967552;28;20029;-73
2022/07/11 05:23:29;;;;;;;;;;;;;;;-144.99;88.27;52266.69;4974127;28;20021;-73
2022/07/11 05:25:55;;;;;;;;;;;;;;;-144.99;87.79;52223.88;4980308;28;19949;-72
2022/07/11 05:28:22;;;;;;;;;;;;;;;-144.99;86.66;52238.16;4979122;28;19960;-73
2022/07/11 05:30:48;;;;;;;;;;;;;;;-144.99;86.24;52225.94;4973463;28;19961;-73
2022/07/11 05:33:14;;;;;;;;;;;;;;;-144.99;85.41;52264.66;4981160;28;20400;-73
2022/07/11 05:35:41;;;;;;;;;;;;;;;-144.99;84.98;52236.13;4976429;28;20029;-73
2022/07/11 05:38:09;;;;;;;;;;;;;;;-144.99;84.32;52264.66;4967434;28;19930;-72
2022/07/11 05:40:35;;;;;;;;;;;;;;;-144.99;83.66;52211.66;4967337;28;20313;-73
2022/07/11 05:43:02;;;;;;;;;;;;;;;-144.99;83.16;52305.41;4970043;28;20233;-72
2022/07/11 05:45:28;;;;;;;;;;;;;;;-144.99;82.28;52221.84;4968345;28;19926;-74
2022/07/11 05:47:54;;;;;;;;;;;;;;;-144.99;81.56;52213.69;4969196;28;20179;-74
2022/07/11 05:50:21;;;;;;;;;;;;;;;-144.99;81.13;52219.81;4969265;28;20484;-73
2022/07/11 05:52:47;;;;;;;;;;;;;;;-144.99;80.77;52211.66;4967034;28;20477;-73
2022/07/11 05:55:15;;;;;;;;;;;;;;;-144.99;80.45;52191.28;4969395;28;19977;-74
2022/07/11 05:57:41;;;;;;;;;;;;;;;-144.99;79.76;52240.19;4972056;28;19930;-73
2022/07/11 06:00:09;;;;;;;;;;;;;;;-144.99;79.07;52240.19;4967576;28;19994;-74
2022/07/11 06:02:35;;;;;;;;;;;;;;;-144.99;78.77;52252.44;4960553;28;19961;-74
2022/07/11 06:05:01;;;;;;;;;;;;;;;-144.99;78.96;52172.94;4967854;28;20029;-74
2022/07/11 06:10:11;;;;;;;;;;;;;;;-144.99;78.29;52225.94;4965568;28;19944;-73
2022/07/11 06:12:41;;;;;;;;;;;;;;;-144.99;77.10;52215.75;4966619;28;20401;-73
2022/07/11 06:15:07;;;;;;;;;;;;;;;-144.99;76.84;52217.78;4969471;28;19930;-72
2022/07/11 06:17:34;;;;;;;;;;;;;;;-144.99;76.27;52207.59;4967729;28;19930;-74
2022/07/11 06:20:00;;;;;;;;;;;;;;;-144.99;75.53;52191.28;4967097;28;20415;-74
2022/07/11 06:22:27;;;;;;;;;;;;;;;-144.99;74.57;52203.50;4963989;28;20471;-73
2022/07/11 06:24:53;;;;;;;;;;;;;;;-144.99;72.57;52166.81;4967183;28;19930;-72
2022/07/11 06:27:20;;;;;;;;;;;;;;;-144.99;71.84;52219.81;4967357;28;20056;-73
2022/07/11 06:29:47;;;;;;;;;;;;;;;-144.99;70.78;52191.28;4968956;28;19933;-73
2022/07/11 06:32:14;;;;;;;;;;;;;;;-144.99;70.10;52215.75;4964991;28;19940;-73
2022/07/11 06:34:40;;;;;;;;;;;;;;;-144.99;69.57;52181.09;4967006;28;20393;-73
2022/07/11 06:37:07;;;;;;;;;;;;;;;-144.99;69.75;52170.91;4966392;28;20029;-74
2022/07/11 06:39:33;;;;;;;;;;;;;;;-144.99;69.09;52223.88;4972519;28;20336;-73
2022/07/11 06:42:00;;;;;;;;;;;;;;;-144.99;68.48;52183.13;4967526;28;21266;-74
2022/07/11 06:44:26;;;;;;;;;;;;;;;-144.99;68.48;52191.28;4971488;28;19926;-75
2022/07/11 06:46:54;;;;;;;;;;;;;;;-144.99;67.22;52207.59;4979747;28;20040;-74
2022/07/11 06:49:21;;;;;;;;;;;;;;;-144.99;67.25;52181.09;4969083;28;19936;-74
2022/07/11 06:51:47;;;;;;;;;;;;;;;-144.99;66.87;52191.28;4965488;28;20588;-73
2022/07/11 06:54:14;;;;;;;;;;;;;;;-144.99;66.36;52170.91;4966637;28;20021;-75
2022/07/11 06:56:40;;;;;;;;;;;;;;;-144.99;65.46;52154.59;4966067;28;19926;-74
2022/07/11 06:59:06;;;;;;;;;;;;;;;-144.99;64.30;52215.75;4966671;28;20097;-72
2022/07/11 07:01:33;;;;;;;;;;;;;;;-144.99;63.30;52130.13;4965071;28;19930;-71
2022/07/11 07:04:01;;;;;;;;;;;;;;;-144.99;62.60;52166.81;4965914;28;19930;-73
2022/07/11 07:06:27;;;;;;;;;;;;;;;-144.99;61.73;52117.91;4962680;28;19930;-72
2022/07/11 07:08:53;;;;;;;;;;;;;;;-144.99;60.98;52166.81;4965146;28;20460;-72
2022/07/11 07:11:20;;;;;;;;;;;;;;;-144.99;60.95;52130.13;4968197;28;19936;-72
2022/07/11 07:13:47;;;;;;;;;;;;;;;-144.99;60.90;52154.59;4967598;28;19926;-72
2022/07/11 07:16:14;;;;;;;;;;;;;;;-144.99;60.95;52191.28;4964923;28;20445;-71
2022/07/11 07:18:42;;;;;;;;;;;;;;;-144.99;60.84;52150.53;4965006;28;20018;-72
2022/07/11 07:21:10;;;;;;;;;;;;;;;-144.99;59.98;52146.44;4964629;28;20020;-72
2022/07/11 07:23:36;;;;;;;;;;;;;;;-144.99;59.97;52185.16;4965082;28;19952;-72
2022/07/11 07:26:03;;;;;;;;;;;;;;;-144.99;59.66;52128.09;4964777;28;19930;-72
2022/07/11 07:28:30;;;;;;;;;;;;;;;-144.99;59.92;52181.09;4967677;28;19952;-72
2022/07/11 07:30:57;;;;;;;;;;;;;;;-144.99;59.74;52134.22;4967963;28;19929;-72
2022/07/11 07:33:23;;;;;;;;;;;;;;;-144.99;59.51;52160.72;4964089;28;19937;-73
2022/07/11 07:35:50;;;;;;;;;;;;;;;-144.99;58.70;52140.31;4964938;28;20409;-72
2022/07/11 07:38:17;;;;;;;;;;;;;;;-144.99;58.95;52117.91;4968649;28;19926;-73
2022/07/11 07:40:44;;;;;;;;;;;;;;;-144.99;57.78;52134.22;4965511;28;19926;-73
2022/07/11 07:43:10;;;;;;;;;;;;;;;-144.99;56.61;52170.91;4964203;28;19932;-72
2022/07/11 07:45:37;;;;;;;;;;;;;;;-144.99;55.79;52152.56;4965305;28;19926;-73
2022/07/11 07:48:03;;;;;;;;;;;;;;;-144.99;54.65;52117.91;4966289;28;20386;-73
2022/07/11 07:50:30;;;;;;;;;;;;;;;-144.99;54.73;52113.84;4964993;28;20048;-71
2022/07/11 07:52:56;;;;;;;;;;;;;;;-144.99;54.16;52179.06;4964577;28;19930;-73
2022/07/11 07:55:25;;;;;;;;;;;;;;;-144.99;54.95;52130.13;4963973;28;19930;-73
2022/07/11 07:57:51;;;;;;;;;;;;;;;-144.99;55.32;52158.66;4959702;28;20259;-73
2022/07/11 08:03:05;;;;;;;;;;;;;;;-144.99;56.31;52152.56;4943311;28;20389;-73
2022/07/11 08:05:31;;;;;;;;;;;;;;;-144.99;56.71;52158.66;4964594;28;19930;-73
2022/07/11 08:07:57;;;;;;;;;;;;;;;-144.99;56.74;52168.84;4964234;28;19930;-74
2022/07/11 08:10:25;;;;;;;;;;;;;;;-144.99;56.57;52126.06;4968016;28;19926;-73
2022/07/11 08:12:52;;;;;;;;;;;;;;;-144.99;55.58;52154.59;4978922;28;20020;-71
2022/07/11 08:15:18;;;;;;;;;;;;;;;-144.99;54.38;52130.13;4965381;28;19937;-73
2022/07/11 08:17:44;;;;;;;;;;;;;;;-144.99;53.85;52134.22;4964698;28;19926;-71
2022/07/11 08:20:11;;;;;;;;;;;;;;;-144.99;53.72;52126.06;4965032;28;20281;-72
2022/07/11 08:22:38;;;;;;;;;;;;;;;-144.99;53.17;52132.19;4963970;28;19956;-72
2022/07/11 08:25:04;;;;;;;;;;;;;;;-144.99;53.23;52126.06;4968170;28;19930;-73
2022/07/11 08:27:33;;;;;;;;;;;;;;;-144.99;52.62;52109.75;4966900;28;20053;-71
2022/07/11 08:29:59;;;;;;;;;;;;;;;-144.99;50.97;52134.22;4969919;28;20293;-72
2022/07/11 08:32:26;;;;;;;;;;;;;;;-144.99;51.08;52134.22;4967341;28;19934;-72
2022/07/11 08:34:52;;;;;;;;;;;;;;;-144.99;50.96;52119.94;4963532;28;20550;-72
2022/07/11 08:37:19;;;;;;;;;;;;;;;-144.99;51.52;52126.06;4967552;28;19930;-72
2022/07/11 08:39:45;;;;;;;;;;;;;;;-144.99;50.85;52121.97;4967327;28;20413;-72
2022/07/11 08:42:12;;;;;;;;;;;;;;;-144.99;50.63;52134.22;4966288;28;20442;-73
2022/07/11 08:44:41;;;;;;;;;;;;;;;-144.99;50.65;52089.38;4967868;28;19965;-72
2022/07/11 08:47:08;;;;;;;;;;;;;;;-144.99;50.64;52109.75;4967737;28;19949;-72
2022/07/11 08:49:34;;;;;;;;;;;;;;;-144.99;50.59;52146.44;4971560;28;20049;-73
2022/07/11 08:52:01;;;;;;;;;;;;;;;-144.99;50.98;52083.25;4967049;28;19986;-72
2022/07/11 08:54:28;;;;;;;;;;;;;;;-144.99;50.81;52134.22;4967504;28;19930;-72
2022/07/11 08:56:55;;;;;;;;;;;;;;;-144.99;50.92;52107.72;4967637;28;19936;-72
2022/07/11 08:59:24;;;;;;;;;;;;;;;-144.99;51.07;52130.13;4968106;28;19969;-72
2022/07/11 09:01:53;;;;;;;;;;;;;;;-144.99;51.66;52150.53;4967458;28;20049;-72
2022/07/11 09:04:20;;;;;;;;;;;;;;;-144.99;52.18;52156.63;4967367;28;19933;-71
2022/07/11 09:06:46;;;;;;;;;;;;;;;-144.99;53.09;52148.47;4966475;28;19934;-73
2022/07/11 09:09:12;;;;;;;;;;;;;;;-144.99;52.99;52170.91;4967062;28;19941;-71
2022/07/11 09:11:50;;;;;;;;;;;;;;;-144.99;52.83;52179.06;4982675;28;19928;-72
2022/07/11 09:14:20;;;;;;;;;;;;;;;-144.99;52.56;52154.59;4968461;28;20505;-73
2022/07/11 09:16:53;;;;;;;;;;;;;;;-144.99;53.18;52179.06;4967284;28;19934;-73
2022/07/11 09:19:23;;;;;;;;;;;;;;;-144.99;53.54;52126.06;4970858;28;19930;-73
2022/07/11 09:27:40;;;;;;;;;;;;;;;-144.99;54.94;52154.59;4965645;28;19975;-70
2022/07/11 09:30:16;;;;;;;;;;;;;;;-144.99;54.99;52146.44;4965963;28;20020;-73
2022/07/11 09:32:52;;;;;;;;;;;;;;;-144.99;54.46;52121.97;4962073;28;19934;-72
2022/07/11 09:35:18;;;;;;;;;;;;;;;-144.99;54.65;52160.72;4966602;28;19937;-72
2022/07/11 09:37:44;;;;;;;;;;;;;;;-144.99;54.77;52154.59;4967257;28;20359;-73
2022/07/11 09:40:12;;;;;;;;;;;;;;;-144.99;53.74;52154.59;4967237;28;19930;-73
2022/07/11 09:42:46;;;;;;;;;;;;;;;-144.99;53.58;52146.44;4965767;28;19930;-71
2022/07/11 09:45:13;;;;;;;;;;;;;;;-144.99;53.45;52142.38;4967014;28;19937;-73
2022/07/11 09:47:44;;;;;;;;;;;;;;;-144.99;53.98;52136.25;4969318;28;19926;-73
2022/07/11 09:50:12;;;;;;;;;;;;;;;-144.99;54.55;52172.94;4972287;28;19994;-72
2022/07/11 09:52:38;;;;;;;;;;;;;;;-144.99;53.98;52142.38;4966286;28;20400;-70
2022/07/11 09:55:05;;;;;;;;;;;;;;;-144.99;53.51;52132.19;4966323;28;20085;-72
2022/07/11 09:57:33;;;;;;;;;;;;;;;-144.99;53.18;52134.22;4967004;28;20024;-72
2022/07/11 10:00:00;;;;;;;;;;;;;;;-144.99;53.50;52154.59;4967835;28;20003;-73
2022/07/11 10:02:27;;;;;;;;;;;;;;;-144.99;53.30;52170.91;4965922;28;19931;-73
2022/07/11 10:04:55;;;;;;;;;;;;;;;-144.99;52.58;52134.22;4966795;28;20401;-73
2022/07/11 10:07:21;;;;;;;;;;;;;;;-144.99;52.80;52150.53;4965967;28;20028;-73
2022/07/11 10:09:48;;;;;;;;;;;;;;;-144.99;53.47;52146.44;4966743;28;20026;-74
2022/07/11 10:12:14;;;;;;;;;;;;;;;-144.99;53.26;52126.06;4965718;28;19978;-73
2022/07/11 10:14:41;;;;;;;;;;;;;;;-144.99;54.18;52109.75;4968621;28;19930;-73
2022/07/11 10:17:10;;;;;;;;;;;;;;;-144.99;52.59;52146.44;4966265;28;19926;-73
2022/07/11 10:19:42;;;;;;;;;;;;;;;-144.99;51.57;52109.75;4965961;28;19944;-73
2022/07/11 10:22:18;;;;;;;;;;;;;;;-144.99;50.76;52105.69;4965844;28;20412;-73
2022/07/11 10:24:48;;;;;;;;;;;;;;;-144.99;50.81;52107.72;4966532;28;20020;-74
2022/07/11 10:27:21;;;;;;;;;;;;;;;-144.99;51.45;52081.22;4970459;28;19927;-75
2022/07/11 10:29:55;;;;;;;;;;;;;;;-144.99;50.94;52089.38;4912063;28;9999920;-73
2022/07/11 10:32:22;;;;;;;;;;;;;;;-144.99;50.23;52048.63;4964931;28;19934;-75
2022/07/11 10:35:03;;;;;;;;;;;;;;;-144.99;49.29;52040.47;4968733;28;19995;-74
2022/07/11 10:37:31;;;;;;;;;;;;;;;-144.99;47.71;52069.00;4974518;28;19953;-72
2022/07/11 10:39:58;;;;;;;;;;;;;;;-144.99;47.53;52113.84;4967207;28;20183;-74
2022/07/11 10:42:37;;;;;;;;;;;;;;;-144.99;47.81;52077.16;4968892;28;19933;-74
2022/07/11 10:45:07;;;;;;;;;;;;;;;-144.99;47.56;52085.31;4965639;28;20053;-75
2022/07/11 10:47:36;;;;;;;;;;;;;;;-144.99;47.26;52107.72;4966272;28;19973;-75
2022/07/11 10:50:08;;;;;;;;;;;;;;;-144.99;46.94;52111.78;4954094;28;19926;-76
2022/07/11 10:52:37;;;;;;;;;;;;;;;-144.99;46.26;52052.69;4965665;28;20662;-75
2022/07/11 10:55:08;;;;;;;;;;;;;;;-144.99;46.19;52052.69;4966800;28;19930;-71
2022/07/11 10:57:41;;;;;;;;;;;;;;;-144.99;46.53;52126.06;4968032;28;20021;-72
2022/07/11 11:00:10;;;;;;;;;;;;;;;-144.99;47.94;52091.41;4965724;28;20448;-73
2022/07/11 11:02:52;;;;;;;;;;;;;;;-144.99;48.06;52060.84;4965693;28;19965;-74
2022/07/11 11:05:40;;;;;;;;;;;;;;;-144.99;46.66;52016.00;4966877;28;19937;-75
2022/07/11 11:08:36;;;;;;;;;;;;;;;-144.99;45.60;52093.44;4963122;28;19930;-74
2022/07/11 11:11:03;;;;;;;;;;;;;;;-144.99;44.75;52060.84;4965496;28;19930;-76
2022/07/11 11:13:30;;;;;;;;;;;;;;;-144.99;44.46;51995.63;4965526;28;20017;-74
2022/07/11 11:15:57;;;;;;;;;;;;;;;-144.99;43.18;52016.00;4966396;28;19926;-73
2022/07/11 11:18:36;;;;;;;;;;;;;;;-144.99;44.55;52077.16;4968769;28;19926;-75
2022/07/11 11:21:15;;;;;;;;;;;;;;;-144.99;45.14;52126.06;4968196;28;19937;-75
2022/07/11 11:23:44;;;;;;;;;;;;;;;-144.99;45.50;52064.91;4966986;28;20435;-75
2022/07/11 11:26:11;;;;;;;;;;;;;;;-144.99;46.42;52028.22;4965944;28;19962;-75
2022/07/11 11:28:39;;;;;;;;;;;;;;;-144.99;45.90;52024.16;4970658;28;19940;-75
2022/07/11 11:31:06;;;;;;;;;;;;;;;-144.99;44.28;52016.00;4983179;28;20405;-73
2022/07/11 11:33:34;;;;;;;;;;;;;;;-144.99;44.21;52028.22;4966620;28;19957;-74
2022/07/11 11:36:01;;;;;;;;;;;;;;;-144.99;43.67;52026.19;4966738;28;19930;-73
2022/07/11 11:38:28;;;;;;;;;;;;;;;-144.99;42.52;51991.56;4967347;28;19934;-75
2022/07/11 11:40:55;;;;;;;;;;;;;;;-144.99;42.09;51991.56;4966186;28;19930;-73
2022/07/11 11:43:22;;;;;;;;;;;;;;;-144.99;41.62;52073.06;4966966;28;19930;-75
2022/07/11 11:45:49;;;;;;;;;;;;;;;-144.99;41.38;52064.91;4968256;28;19937;-74
2022/07/11 11:48:26;;;;;;;;;;;;;;;-144.99;41.77;52064.91;4978157;28;19930;-75
2022/07/11 11:50:53;;;;;;;;;;;;;;;-144.99;41.86;52089.38;4974558;28;20350;-74
2022/07/11 11:53:19;;;;;;;;;;;;;;;-144.99;42.21;52109.75;4966078;28;19925;-75
2022/07/11 11:55:46;;;;;;;;;;;;;;;-144.99;42.69;52058.81;4965330;28;20033;-73
2022/07/11 11:58:13;;;;;;;;;;;;;;;-144.99;42.64;52036.38;4971895;28;19932;-76
2022/07/11 12:00:40;;;;;;;;;;;;;;;-144.99;42.09;52101.59;4969624;28;20384;-75
2022/07/11 12:03:06;;;;;;;;;;;;;;;-144.99;41.42;52085.31;4969058;28;19926;-74
2022/07/11 12:05:33;;;;;;;;;;;;;;;-144.99;42.35;52060.84;4968209;28;20041;-74
2022/07/11 12:08:00;;;;;;;;;;;;;;;-144.99;42.31;52077.16;4968860;28;19930;-75
2022/07/11 12:10:26;;;;;;;;;;;;;;;-144.99;42.69;52022.13;4971440;28;19982;-75
2022/07/11 12:12:53;;;;;;;;;;;;;;;-144.99;42.68;52022.13;4969887;28;19968;-75
2022/07/11 12:15:25;;;;;;;;;;;;;;;-144.99;42.12;52020.09;4969707;28;19930;-75
2022/07/11 12:17:53;;;;;;;;;;;;;;;-144.99;41.80;52020.09;4968615;28;19934;-73
2022/07/11 12:20:33;;;;;;;;;;;;;;;-144.99;41.75;52083.25;4963332;28;19984;-75
2022/07/11 12:23:00;;;;;;;;;;;;;;;-144.99;41.64;52060.84;4968853;28;20348;-75
2022/07/11 12:25:26;;;;;;;;;;;;;;;-144.99;41.20;52016.00;4963353;28;19941;-75
2022/07/11 12:27:56;;;;;;;;;;;;;;;-144.99;40.54;51979.31;4975215;28;19934;-75
2022/07/11 12:30:24;;;;;;;;;;;;;;;-144.99;40.09;52052.69;4969668;28;20134;-75
2022/07/11 12:33:09;;;;;;;;;;;;;;;-144.99;39.68;52101.59;4969176;28;20021;-76
2022/07/11 12:35:35;;;;;;;;;;;;;;;-144.99;40.34;52056.78;4964067;28;20464;-76
2022/07/11 12:38:01;;;;;;;;;;;;;;;-144.99;40.47;52048.63;4972777;28;19926;-74
2022/07/11 12:40:28;;;;;;;;;;;;;;;-144.99;40.77;52085.31;4969143;28;20016;-75
2022/07/11 12:42:54;;;;;;;;;;;;;;;-144.99;41.20;52111.78;4968886;28;20033;-76